Impacts TAF Board INFO
FOR SITUATIONAL AWARENESS. NOT TO BE USED FOR FLIGHT PLANNING PURPOSES.
IDs:

KDCA - Washington/National, VA, US

Issued at 2340 UTC 21 Nov 2017
Updated at 0333 UTC 22 Nov 2017
Potential Impact None Slight Moderate High
Time0252Z 22/04Z 22/05Z 22/06Z 22/07Z 22/08Z 22/09Z 22/10Z 22/11Z 22/12Z 22/13Z 22/14Z 22/15Z 22/16Z>>
Type OBS PRVL PRVL PRVL PRVL PRVL PRVL PRVL PRVL PRVL PRVL PRVL PRVL PRVL
VIS 10 >6 >6 >6 >6 >6 >6 >6 >6 >6 >6 >6 >6 >6
CIG 250 100 100 100 100 35 25 25 60 60 90 -- -- --
Cover BKN BKN BKN BKN BKN BKN BKN BKN BKN BKN BKN SCT SCT SCT
FltCat VFR VFR VFR VFR VFR VFR MVFR MVFR VFR VFR VFR VFR VFR VFR
WX -- -- -- -- -- -RA -RA -RA -- -- -- -- -- --
WDir 190 200 200 200 200 240 250 250 290 290 310 320 320 320
WSpd 7 8 8 8 8 6 5 5 5 5 9 16 16 16
WGst -- -- -- -- -- -- -- -- -- -- -- 30 30 30

Raw TAF
KDCA 212340Z 2200/2224 19008KT P6SM BKN250
  FM220300 20008KT P6SM BKN100
  FM220800 24006KT P6SM -RA BKN035
  FM220900 25005KT P6SM -RA BKN025
  FM221100 29005KT P6SM BKN060
  FM221300 31009KT P6SM BKN090
  FM221400 32016G30KT P6SM SCT250


Raw METAR
KDCA 220252Z COR 19007KT 10SM FEW055 SCT210 BKN250 12/07 A3005 RMK AO2 SLP175 T01220072 58001
KDCA 220152Z 19010KT 10SM FEW050 BKN200 BKN250 11/07 A3006 RMK AO2 SLP177 T01110072
KDCA 220052Z 19010KT 10SM SCT050 BKN250 12/07 A3006 RMK AO2 SLP180 T01220067

METAR Board
Radar Display
Forecast Discussion

FOR SITUATIONAL AWARENESS. NOT TO BE USED FOR FLIGHT PLANNING PURPOSES.